Time;durP1;ratioP1;P1;durP2;ratioP2;P2;SDS_P1;SDS_P2;PMS_P1;PMS_P2;Temp;Humidity;BMP_temperature;BMP_pressure;BME280_temperature;BME280_humidity;BME280_pressure;Samples;Min_cycle;Max_cycle;Signal;HPM_P1;HPM_P2
2023/11/20 00:01:12;;;;;;;0.30;0.20;;;;;;;13.68;85.37;99870.81;5008337;28;20881;-50
2023/11/20 00:03:39;;;;;;;0.30;0.20;;;;;;;13.57;85.89;99882.03;5007733;28;20460;-49
2023/11/20 00:06:05;;;;;;;0.30;0.20;;;;;;;13.66;85.45;99884.25;5001682;28;20934;-49
2023/11/20 00:08:32;;;;;;;0.30;0.20;;;;;;;13.59;85.68;99881.00;5012524;28;20870;-50
2023/11/20 00:10:58;;;;;;;0.30;0.20;;;;;;;13.50;85.86;99877.91;5014703;28;20476;-50
2023/11/20 00:13:25;;;;;;;0.30;0.20;;;;;;;13.55;86.29;99879.41;5002758;28;20882;-49
2023/11/20 00:15:52;;;;;;;0.30;0.20;;;;;;;13.67;85.99;99872.59;5006040;28;20539;-49
2023/11/20 00:18:19;;;;;;;0.30;0.20;;;;;;;13.60;86.62;99869.38;5006338;28;20466;-50
2023/11/20 00:20:45;;;;;;;0.30;0.20;;;;;;;13.52;86.89;99868.00;4999756;28;20449;-51
2023/11/20 00:23:12;;;;;;;0.30;0.20;;;;;;;13.42;87.63;99864.03;5010778;28;20484;-50
2023/11/20 00:25:38;;;;;;;0.30;0.20;;;;;;;13.47;87.87;99862.91;5001590;28;20419;-50
2023/11/20 00:28:05;;;;;;;0.30;0.20;;;;;;;13.43;87.96;99863.09;5002054;28;20902;-50
2023/11/20 00:30:31;;;;;;;0.30;0.20;;;;;;;13.45;87.94;99864.78;5007957;28;20487;-50
2023/11/20 00:32:58;;;;;;;0.30;0.20;;;;;;;13.49;87.79;99869.03;4998085;28;20785;-49
2023/11/20 00:35:25;;;;;;;0.30;0.20;;;;;;;13.48;87.79;99861.94;5008178;28;20460;-50
2023/11/20 00:37:52;;;;;;;0.30;0.20;;;;;;;13.41;87.99;99868.50;5007252;28;20480;-50
2023/11/20 00:40:18;;;;;;;0.30;0.20;;;;;;;13.34;88.08;99867.94;5007569;28;20449;-49
2023/11/20 00:42:45;;;;;;;0.30;0.20;;;;;;;13.43;87.91;99871.09;5001763;28;20790;-50
2023/11/20 00:45:11;;;;;;;0.30;0.20;;;;;;;13.46;87.46;99865.63;5013808;28;20483;-49
2023/11/20 00:47:38;;;;;;;0.30;0.20;;;;;;;13.47;87.29;99867.38;5017517;28;20451;-49
2023/11/20 00:50:05;;;;;;;0.30;0.20;;;;;;;13.62;86.67;99880.84;5011262;28;20436;-50
2023/11/20 00:52:34;;;;;;;0.30;0.20;;;;;;;13.64;87.06;99875.44;5003438;28;20482;-50
2023/11/20 00:55:09;;;;;;;0.30;0.20;;;;;;;13.73;86.46;99877.69;5000999;28;20463;-50
2023/11/20 00:57:37;;;;;;;0.30;0.20;;;;;;;13.60;86.72;99876.53;5003347;28;20505;-50
2023/11/20 01:00:06;;;;;;;0.30;0.20;;;;;;;13.56;86.93;99877.59;5006807;28;20852;-50
2023/11/20 01:02:33;;;;;;;0.30;0.20;;;;;;;13.71;86.49;99876.88;5005511;28;20936;-50
2023/11/20 01:05:00;;;;;;;0.30;0.20;;;;;;;13.61;86.12;99876.47;5000783;28;20455;-50
2023/11/20 01:07:27;;;;;;;0.30;0.20;;;;;;;13.57;86.70;99877.56;5002188;28;20466;-50
2023/11/20 01:09:53;;;;;;;0.30;0.20;;;;;;;13.60;86.07;99881.88;5012641;28;20550;-50
2023/11/20 01:12:20;;;;;;;0.30;0.20;;;;;;;13.37;87.37;99885.63;5002079;28;20931;-50
2023/11/20 01:14:46;;;;;;;0.30;0.20;;;;;;;13.44;86.51;99883.53;5006987;28;20449;-49
2023/11/20 01:17:13;;;;;;;0.30;0.20;;;;;;;13.61;86.63;99886.28;4995786;28;20547;-50
2023/11/20 01:19:40;;;;;;;0.30;0.20;;;;;;;13.62;86.27;99880.00;5007201;28;20431;-50
2023/11/20 01:22:08;;;;;;;0.30;0.20;;;;;;;13.49;86.35;99882.38;5006039;28;20481;-50
2023/11/20 01:24:34;;;;;;;0.30;0.20;;;;;;;13.62;86.34;99875.50;5000173;28;20515;-50
2023/11/20 01:27:01;;;;;;;0.30;0.20;;;;;;;13.84;85.52;99880.69;5001443;28;20824;-50
2023/11/20 01:29:28;;;;;;;0.30;0.20;;;;;;;13.59;85.84;99878.34;4999080;28;20456;-50
2023/11/20 01:31:55;;;;;;;0.30;0.20;;;;;;;13.61;85.98;99876.47;5000832;28;20965;-50
2023/11/20 01:34:22;;;;;;;0.30;0.20;;;;;;;13.65;85.84;99879.84;5006997;28;20435;-49
2023/11/20 01:36:49;;;;;;;0.30;0.20;;;;;;;13.55;85.58;99874.06;5006278;28;20976;-50
2023/11/20 01:39:16;;;;;;;0.30;0.20;;;;;;;13.50;85.68;99872.56;4999937;28;20456;-49
2023/11/20 01:41:42;;;;;;;0.30;0.20;;;;;;;13.53;86.08;99867.94;5013232;28;20464;-50
2023/11/20 01:44:09;;;;;;;0.30;0.20;;;;;;;13.47;86.03;99862.91;4999575;28;20449;-49
2023/11/20 01:46:36;;;;;;;0.30;0.20;;;;;;;13.59;86.42;99862.31;5022987;28;20474;-49
2023/11/20 01:49:04;;;;;;;0.30;0.20;;;;;;;13.48;86.25;99856.63;5000541;28;20439;-50
2023/11/20 01:51:31;;;;;;;0.30;0.20;;;;;;;13.59;86.06;99864.13;5002828;28;20447;-49
2023/11/20 01:53:59;;;;;;;0.30;0.20;;;;;;;13.57;86.01;99863.34;5005844;28;20453;-50
2023/11/20 01:56:26;;;;;;;0.30;0.20;;;;;;;13.68;85.76;99861.00;5003353;28;20556;-50
2023/11/20 01:58:55;;;;;;;0.30;0.20;;;;;;;13.51;85.62;99859.13;4999672;28;20462;-49
2023/11/20 02:01:22;;;;;;;0.30;0.20;;;;;;;13.59;85.74;99856.97;5001336;28;20458;-50
2023/11/20 02:03:54;;;;;;;0.30;0.20;;;;;;;13.68;85.35;99861.00;5006396;28;20424;-50
2023/11/20 02:06:23;;;;;;;0.30;0.20;;;;;;;13.63;86.13;99855.00;5004075;28;20456;-50
2023/11/20 02:08:49;;;;;;;0.30;0.20;;;;;;;13.88;85.24;99855.56;4999576;28;20893;-50
2023/11/20 02:11:17;;;;;;;0.30;0.20;;;;;;;13.70;86.81;99850.22;5012530;28;20460;-50
2023/11/20 02:13:44;;;;;;;0.30;0.20;;;;;;;13.54;87.70;99863.44;4999587;28;20535;-50
2023/11/20 02:16:11;;;;;;;0.30;0.20;;;;;;;13.59;87.22;99867.66;5011574;28;20521;-50
2023/11/20 02:18:37;;;;;;;0.30;0.20;;;;;;;13.49;88.02;99862.81;4999246;28;20457;-50
2023/11/20 02:21:04;;;;;;;0.30;0.20;;;;;;;13.47;88.54;99856.69;4999445;28;20424;-50
2023/11/20 02:23:31;;;;;;;0.30;0.20;;;;;;;13.63;88.39;99858.53;4999453;28;20835;-50
2023/11/20 02:26:07;;;;;;;0.30;0.20;;;;;;;13.56;88.57;99854.44;4999165;28;20592;-50
2023/11/20 02:28:42;;;;;;;0.30;0.20;;;;;;;13.45;88.85;99846.09;5004446;28;20536;-50
2023/11/20 02:31:08;;;;;;;0.30;0.20;;;;;;;13.65;88.05;99847.78;5005489;28;20448;-50
2023/11/20 02:33:39;;;;;;;0.30;0.20;;;;;;;13.59;88.69;99845.44;5001965;28;20458;-50
2023/11/20 02:36:05;;;;;;;0.30;0.20;;;;;;;13.58;87.78;99849.91;4998177;28;20846;-50
2023/11/20 02:38:33;;;;;;;0.30;0.20;;;;;;;13.47;88.06;99844.19;5002272;28;20872;-49
2023/11/20 02:41:00;;;;;;;0.30;0.20;;;;;;;13.57;87.81;99844.63;5008661;28;20453;-50
2023/11/20 02:43:27;;;;;;;0.30;0.20;;;;;;;13.55;88.39;99849.16;5002488;28;20464;-50
2023/11/20 02:45:55;;;;;;;0.30;0.20;;;;;;;13.50;88.29;99849.38;5011967;28;20830;-50
2023/11/20 02:48:22;;;;;;;0.30;0.20;;;;;;;13.51;87.95;99844.91;5020649;28;20480;-50
2023/11/20 02:50:49;;;;;;;0.30;0.20;;;;;;;13.53;87.68;99843.91;5006937;28;20462;-50
2023/11/20 02:53:16;;;;;;;0.30;0.20;;;;;;;13.57;87.49;99839.28;5000275;28;21033;-50
2023/11/20 02:55:42;;;;;;;0.30;0.20;;;;;;;13.58;87.71;99846.38;5005118;28;20507;-49
2023/11/20 02:58:09;;;;;;;0.30;0.20;;;;;;;13.52;87.92;99844.84;5004206;28;20467;-50
2023/11/20 03:00:38;;;;;;;0.30;0.20;;;;;;;13.47;87.76;99841.53;4998709;28;20452;-50
2023/11/20 03:03:06;;;;;;;0.30;0.20;;;;;;;13.38;88.91;99838.41;5005353;28;20902;-49
2023/11/20 03:05:35;;;;;;;0.30;0.20;;;;;;;13.44;88.49;99831.00;4998739;28;20479;-50
2023/11/20 03:08:02;;;;;;;0.30;0.20;;;;;;;13.44;88.30;99835.47;5010705;28;20477;-49
2023/11/20 03:10:29;;;;;;;0.30;0.20;;;;;;;13.47;88.08;99828.19;5006835;28;20427;-50
2023/11/20 03:12:55;;;;;;;0.30;0.20;;;;;;;13.48;88.20;99829.03;5011615;28;20518;-49
2023/11/20 03:15:22;;;;;;;0.30;0.20;;;;;;;13.38;87.84;99833.94;4999007;28;20495;-49
2023/11/20 03:17:49;;;;;;;0.30;0.20;;;;;;;13.40;88.30;99833.88;4998486;28;20528;-50
2023/11/20 03:20:16;;;;;;;0.30;0.20;;;;;;;13.49;87.49;99828.09;5004866;28;20481;-50
2023/11/20 03:22:42;;;;;;;0.30;0.20;;;;;;;13.44;87.09;99825.66;5005180;28;20490;-50
2023/11/20 03:25:09;;;;;;;0.30;0.20;;;;;;;13.39;87.05;99826.81;4999017;28;21248;-51
2023/11/20 03:27:35;;;;;;;0.30;0.20;;;;;;;13.36;87.43;99825.16;4998365;28;20904;-50
2023/11/20 03:30:02;;;;;;;0.30;0.20;;;;;;;13.34;87.67;99822.56;5004511;28;20424;-50
2023/11/20 03:32:29;;;;;;;0.30;0.20;;;;;;;13.27;87.27;99831.78;5005289;28;20915;-49
2023/11/20 03:34:55;;;;;;;0.30;0.20;;;;;;;13.24;87.24;99831.94;4999229;28;20514;-50
2023/11/20 03:37:22;;;;;;;0.30;0.20;;;;;;;13.23;87.28;99835.53;5010264;28;20968;-50
2023/11/20 03:39:49;;;;;;;0.30;0.20;;;;;;;13.17;88.09;99829.59;5000944;28;20515;-49
2023/11/20 03:42:15;;;;;;;0.30;0.20;;;;;;;13.20;88.15;99825.00;4998287;28;20432;-50
2023/11/20 03:44:43;;;;;;;0.30;0.20;;;;;;;13.25;87.29;99835.47;5006458;28;20476;-50
2023/11/20 03:47:09;;;;;;;0.40;0.20;;;;;;;13.17;87.98;99833.13;5011186;28;20522;-50
2023/11/20 03:49:35;;;;;;;0.30;0.20;;;;;;;13.20;88.18;99835.69;5003127;28;20931;-50
2023/11/20 03:52:02;;;;;;;0.30;0.20;;;;;;;13.28;88.42;99836.19;5004690;28;20497;-50
2023/11/20 03:54:29;;;;;;;0.30;0.20;;;;;;;13.18;88.43;99840.25;5000115;28;20427;-50
2023/11/20 03:56:55;;;;;;;0.30;0.20;;;;;;;13.16;89.14;99850.09;4998062;28;20505;-49
2023/11/20 03:59:22;;;;;;;0.30;0.20;;;;;;;13.12;90.07;99837.81;5005810;28;20481;-50
2023/11/20 04:01:50;;;;;;;0.30;0.20;;;;;;;13.17;89.07;99837.63;4998298;28;20930;-50
2023/11/20 04:04:16;;;;;;;0.30;0.20;;;;;;;13.30;89.44;99836.13;5004840;28;20502;-50
2023/11/20 04:06:43;;;;;;;0.30;0.20;;;;;;;13.17;90.05;99842.94;5001703;28;20492;-50
2023/11/20 04:09:10;;;;;;;0.30;0.20;;;;;;;13.19;89.95;99843.78;5005904;28;20427;-49
2023/11/20 04:11:36;;;;;;;0.30;0.20;;;;;;;13.14;90.42;99843.94;5001019;28;20775;-49
2023/11/20 04:14:03;;;;;;;0.30;0.20;;;;;;;13.07;90.64;99831.81;5001769;28;20536;-50
2023/11/20 04:16:30;;;;;;;0.30;0.20;;;;;;;13.21;89.94;99842.75;5008573;28;20483;-49
2023/11/20 04:18:57;;;;;;;0.30;0.20;;;;;;;13.12;90.48;99853.81;5005162;28;20498;-50
2023/11/20 04:21:25;;;;;;;0.30;0.20;;;;;;;13.11;90.16;99841.41;5007458;28;20453;-50
2023/11/20 04:23:52;;;;;;;0.30;0.20;;;;;;;13.12;90.75;99853.81;5014295;28;20488;-50
2023/11/20 04:26:18;;;;;;;0.30;0.20;;;;;;;13.12;90.60;99850.28;5002264;28;20460;-50
2023/11/20 04:28:45;;;;;;;0.30;0.20;;;;;;;13.10;90.90;99857.50;5014414;28;21012;-50
2023/11/20 04:31:11;;;;;;;0.30;0.20;;;;;;;13.14;90.61;99856.41;5001280;28;20452;-50
2023/11/20 04:33:42;;;;;;;0.30;0.20;;;;;;;13.09;90.51;99867.31;5003753;28;20483;-50
2023/11/20 04:36:12;;;;;;;0.30;0.20;;;;;;;13.16;90.59;99866.09;5007757;28;20445;-50
2023/11/20 04:38:39;;;;;;;0.30;0.20;;;;;;;13.14;90.78;99864.41;5007173;28;20423;-50
2023/11/20 04:41:06;;;;;;;0.30;0.20;;;;;;;13.11;91.15;99868.09;5008126;28;20432;-50
2023/11/20 04:43:32;;;;;;;0.30;0.20;;;;;;;13.36;91.18;99875.88;5007165;28;20453;-50
2023/11/20 04:45:59;;;;;;;0.30;0.20;;;;;;;13.27;90.27;99877.16;5013635;28;20486;-50
2023/11/20 04:48:26;;;;;;;0.30;0.20;;;;;;;13.30;89.95;99870.84;5021971;28;20548;-50
2023/11/20 04:50:52;;;;;;;0.30;0.20;;;;;;;13.28;90.40;99859.34;5008807;28;20841;-50
2023/11/20 04:53:21;;;;;;;0.30;0.20;;;;;;;13.33;90.51;99866.22;5006759;28;20463;-49
2023/11/20 04:55:48;;;;;;;0.30;0.20;;;;;;;13.23;90.58;99874.72;5000898;28;20457;-50
2023/11/20 04:58:20;;;;;;;0.30;0.20;;;;;;;13.53;89.29;99869.72;5001867;28;20580;-50
2023/11/20 05:00:48;;;;;;;0.30;0.20;;;;;;;13.13;90.92;99866.22;5001219;28;20442;-49
2023/11/20 05:03:15;;;;;;;0.30;0.20;;;;;;;13.26;90.71;99862.06;5000530;28;20460;-50
2023/11/20 05:05:42;;;;;;;0.30;0.20;;;;;;;13.47;90.03;99864.69;5007346;28;20430;-49
2023/11/20 05:08:10;;;;;;;0.30;0.20;;;;;;;13.47;90.17;99864.69;5007134;28;20552;-50
2023/11/20 05:10:37;;;;;;;0.30;0.20;;;;;;;13.26;90.68;99866.56;5009823;28;20915;-49
2023/11/20 05:13:03;;;;;;;0.30;0.20;;;;;;;13.16;91.55;99870.56;5000465;28;20494;-50
2023/11/20 05:15:30;;;;;;;0.30;0.20;;;;;;;13.14;91.52;99867.94;5006436;28;20443;-50
2023/11/20 05:17:56;;;;;;;0.30;0.20;;;;;;;13.08;91.45;99868.25;5006853;28;20499;-50
2023/11/20 05:20:23;;;;;;;0.30;0.20;;;;;;;13.28;91.34;99865.53;5001576;28;20431;-49
2023/11/20 05:22:52;;;;;;;0.30;0.20;;;;;;;13.40;90.91;99877.44;5000748;28;20457;-50
2023/11/20 05:25:18;;;;;;;0.30;0.20;;;;;;;13.42;91.59;99866.69;5005364;28;20795;-50
2023/11/20 05:27:45;;;;;;;0.30;0.20;;;;;;;13.25;91.32;99865.69;5006732;28;21002;-50
2023/11/20 05:30:12;;;;;;;0.30;0.20;;;;;;;13.30;90.99;99870.84;5002105;28;20423;-49
2023/11/20 05:32:39;;;;;;;0.30;0.20;;;;;;;13.43;91.10;99868.44;4999230;28;20432;-50
2023/11/20 05:35:06;;;;;;;0.30;0.20;;;;;;;13.13;91.99;99873.34;5004696;28;20464;-50
2023/11/20 05:37:32;;;;;;;0.30;0.20;;;;;;;13.28;92.01;99872.69;5006726;28;20524;-50
2023/11/20 05:39:59;;;;;;;0.30;0.20;;;;;;;13.23;91.91;99878.25;5004182;28;20434;-50
2023/11/20 05:42:25;;;;;;;0.30;0.20;;;;;;;13.51;91.36;99871.63;4999860;28;20457;-50
2023/11/20 05:44:52;;;;;;;0.30;0.20;;;;;;;13.57;90.76;99866.00;5008456;28;21007;-50
2023/11/20 05:47:19;;;;;;;0.30;0.20;;;;;;;13.24;91.13;99861.28;5025938;28;20504;-50
2023/11/20 05:49:45;;;;;;;0.30;0.20;;;;;;;13.45;91.64;99867.44;5003514;28;20428;-50
2023/11/20 05:52:12;;;;;;;0.30;0.20;;;;;;;13.51;91.42;99855.59;5006376;28;20909;-50
2023/11/20 05:54:38;;;;;;;0.30;0.20;;;;;;;13.13;92.57;99854.69;5003219;28;20506;-50
2023/11/20 05:57:05;;;;;;;0.30;0.20;;;;;;;12.87;93.51;99855.84;4999548;28;20499;-50
2023/11/20 05:59:32;;;;;;;0.30;0.20;;;;;;;12.99;93.66;99849.97;5002962;28;20768;-50
2023/11/20 06:02:00;;;;;;;0.30;0.20;;;;;;;13.00;93.93;99841.03;5006277;28;20515;-50
2023/11/20 06:04:27;;;;;;;0.30;0.20;;;;;;;12.89;94.83;99844.22;5003437;28;20455;-50
2023/11/20 06:06:54;;;;;;;0.30;0.20;;;;;;;12.86;94.44;99840.78;4999276;28;20535;-50
2023/11/20 06:09:20;;;;;;;0.30;0.20;;;;;;;12.86;95.58;99836.31;5007507;28;20453;-50
2023/11/20 06:11:49;;;;;;;0.30;0.20;;;;;;;12.74;94.84;99832.41;5008143;28;20988;-50
2023/11/20 06:14:16;;;;;;;0.30;0.20;;;;;;;12.97;94.60;99834.03;5003969;28;20452;-50
2023/11/20 06:16:43;;;;;;;0.30;0.20;;;;;;;12.75;95.19;99835.97;4999376;28;20579;-50
2023/11/20 06:19:09;;;;;;;0.30;0.20;;;;;;;12.79;95.02;99845.56;5001277;28;20431;-50
2023/11/20 06:21:44;;;;;;;0.30;0.20;;;;;;;12.80;94.12;99844.63;5011168;28;20453;-49
2023/11/20 06:24:11;;;;;;;0.30;0.20;;;;;;;12.79;94.27;99839.34;4999839;28;20431;-50
2023/11/20 06:26:37;;;;;;;0.30;0.20;;;;;;;12.68;94.74;99835.34;5005706;28;20463;-50
2023/11/20 06:29:04;;;;;;;0.30;0.20;;;;;;;12.67;94.57;99838.09;5005771;28;20896;-50
2023/11/20 06:31:30;;;;;;;0.30;0.20;;;;;;;12.55;94.32;99839.50;4999592;28;20530;-50
2023/11/20 06:33:57;;;;;;;0.30;0.20;;;;;;;12.55;94.82;99831.50;4999057;28;20460;-50
2023/11/20 06:36:23;;;;;;;0.30;0.20;;;;;;;12.73;93.55;99833.34;5005344;28;20453;-50
2023/11/20 06:38:50;;;;;;;0.30;0.20;;;;;;;12.43;93.81;99835.56;5005258;28;21003;-50
2023/11/20 06:41:21;;;;;;;0.30;0.20;;;;;;;12.59;93.45;99835.75;5004991;28;20504;-50
2023/11/20 06:43:47;;;;;;;0.30;0.20;;;;;;;12.34;93.57;99845.78;5005857;28;20866;-50
2023/11/20 06:46:21;;;;;;;0.30;0.20;;;;;;;12.42;93.52;99833.84;5014737;28;20523;-50
2023/11/20 06:48:48;;;;;;;0.30;0.20;;;;;;;12.53;93.90;99843.16;5014127;28;20476;-50
2023/11/20 06:51:16;;;;;;;0.30;0.20;;;;;;;12.36;93.22;99838.56;5000236;28;21070;-50
2023/11/20 06:53:46;;;;;;;0.30;0.20;;;;;;;12.50;93.02;99843.31;4998491;28;20456;-51
2023/11/20 06:56:19;;;;;;;0.30;0.20;;;;;;;12.30;94.11;99844.16;5003064;28;21013;-50
2023/11/20 06:58:47;;;;;;;0.30;0.20;;;;;;;12.50;93.54;99851.31;5004960;28;20520;-50
2023/11/20 07:01:14;;;;;;;0.30;0.20;;;;;;;12.52;92.92;99852.09;5002303;28;20459;-50
2023/11/20 07:03:44;;;;;;;0.30;0.20;;;;;;;12.51;92.84;99855.72;4998628;28;20459;-50
2023/11/20 07:06:17;;;;;;;0.30;0.20;;;;;;;12.69;92.29;99860.22;5000779;28;20519;-50
2023/11/20 07:08:47;;;;;;;0.30;0.20;;;;;;;12.53;93.10;99862.69;5006596;28;20493;-48
2023/11/20 07:11:14;;;;;;;0.30;0.20;;;;;;;12.55;92.38;99873.28;5012020;28;20480;-48
2023/11/20 07:13:41;;;;;;;0.30;0.20;;;;;;;12.58;92.91;99871.34;4993116;28;20420;-49
2023/11/20 07:16:08;;;;;;;0.30;0.20;;;;;;;12.44;93.33;99879.94;5004151;28;20453;-47
2023/11/20 07:18:35;;;;;;;0.30;0.20;;;;;;;12.64;93.11;99880.91;4998285;28;20997;-49
2023/11/20 07:21:02;;;;;;;0.30;0.20;;;;;;;12.62;92.57;99875.63;4999379;28;20491;-48
2023/11/20 07:23:29;;;;;;;0.30;0.20;;;;;;;12.78;91.43;99890.97;5005106;28;20943;-48
2023/11/20 07:25:55;;;;;;;0.30;0.20;;;;;;;12.99;91.37;99887.31;5004749;28;20567;-49
2023/11/20 07:28:22;;;;;;;0.30;0.20;;;;;;;12.84;91.35;99888.00;4998430;28;20439;-47
2023/11/20 07:30:48;;;;;;;0.30;0.20;;;;;;;12.93;91.57;99890.28;4999292;28;20532;-47
2023/11/20 07:33:15;;;;;;;0.30;0.20;;;;;;;12.98;90.85;99896.25;5003672;28;20450;-48
2023/11/20 07:35:42;;;;;;;0.30;0.20;;;;;;;12.88;91.88;99894.94;5005004;28;20896;-49
2023/11/20 07:38:08;;;;;;;0.30;0.20;;;;;;;13.02;90.77;99898.75;4998086;28;20527;-47
2023/11/20 07:40:35;;;;;;;0.30;0.20;;;;;;;13.07;91.19;99900.34;5011490;28;20459;-47
2023/11/20 07:43:01;;;;;;;0.30;0.20;;;;;;;13.19;90.48;99903.34;4998614;28;20456;-49
2023/11/20 07:45:28;;;;;;;0.30;0.20;;;;;;;12.77;92.29;99906.09;5008467;28;20822;-48
2023/11/20 07:47:54;;;;;;;0.30;0.20;;;;;;;12.84;92.49;99910.22;5023600;28;20526;-47
2023/11/20 07:50:21;;;;;;;0.30;0.20;;;;;;;12.99;91.22;99909.53;5000612;28;20430;-48
2023/11/20 07:52:48;;;;;;;0.30;0.20;;;;;;;12.84;91.76;99909.34;5007983;28;21017;-49
2023/11/20 07:55:15;;;;;;;0.30;0.20;;;;;;;12.73;92.02;99902.69;5009312;28;20448;-48
2023/11/20 07:57:42;;;;;;;0.30;0.20;;;;;;;12.85;91.28;99895.94;5004135;28;20492;-47
2023/11/20 08:00:11;;;;;;;0.30;0.20;;;;;;;12.87;91.80;99899.41;5002284;28;20548;-48
2023/11/20 08:02:38;;;;;;;0.30;0.20;;;;;;;12.86;91.77;99891.47;5006750;28;20557;-47
2023/11/20 08:05:07;;;;;;;0.30;0.20;;;;;;;13.00;90.88;99889.91;5009177;28;20456;-49
2023/11/20 08:07:35;;;;;;;0.30;0.20;;;;;;;13.05;90.87;99900.41;5004600;28;20857;-47
2023/11/20 08:10:04;;;;;;;0.30;0.20;;;;;;;12.92;91.25;99897.41;5010549;28;20518;-48
2023/11/20 08:12:33;;;;;;;0.30;0.20;;;;;;;12.83;90.88;99891.63;5005601;28;20804;-47
2023/11/20 08:15:00;;;;;;;0.30;0.20;;;;;;;12.73;91.60;99891.16;5008345;28;20449;-47
2023/11/20 08:17:26;;;;;;;0.30;0.20;;;;;;;12.89;91.44;99883.38;5005460;28;20468;-48
2023/11/20 08:19:53;;;;;;;0.30;0.20;;;;;;;12.78;91.42;99878.50;5001782;28;20455;-47
2023/11/20 08:22:19;;;;;;;0.30;0.20;;;;;;;12.79;91.20;99880.22;5004507;28;20511;-47
2023/11/20 08:24:46;;;;;;;0.30;0.20;;;;;;;12.99;90.99;99882.84;5008324;28;20532;-48
2023/11/20 08:27:12;;;;;;;0.30;0.20;;;;;;;12.88;91.29;99887.78;5005509;28;20482;-48
2023/11/20 08:29:39;;;;;;;0.30;0.20;;;;;;;12.93;91.04;99882.28;5001096;28;20472;-48
2023/11/20 08:32:06;;;;;;;0.30;0.20;;;;;;;12.93;91.27;99884.94;5003854;28;20489;-48
2023/11/20 08:34:32;;;;;;;0.30;0.20;;;;;;;13.12;91.09;99876.97;5008253;28;20449;-47
2023/11/20 08:36:59;;;;;;;0.30;0.20;;;;;;;13.14;90.71;99877.75;5005839;28;20447;-48
2023/11/20 08:39:31;;;;;;;0.30;0.20;;;;;;;12.94;92.53;99879.53;5001587;28;21037;-48
2023/11/20 08:41:59;;;;;;;0.30;0.20;;;;;;;12.84;93.07;99880.00;5002649;28;20455;-47
2023/11/20 08:44:26;;;;;;;0.30;0.20;;;;;;;13.00;93.07;99878.38;5008770;28;20457;-49
2023/11/20 08:46:52;;;;;;;0.30;0.20;;;;;;;13.02;92.98;99880.06;5026886;28;20454;-48
2023/11/20 08:49:19;;;;;;;0.30;0.20;;;;;;;13.15;92.51;99868.81;5010061;28;20850;-48
2023/11/20 08:51:46;;;;;;;0.30;0.20;;;;;;;13.04;92.64;99878.19;5008183;28;20457;-47
2023/11/20 08:54:27;;;;;;;0.30;0.20;;;;;;;13.06;92.21;99878.13;5003038;28;20547;-47
2023/11/20 08:56:54;;;;;;;0.30;0.20;;;;;;;13.09;92.54;99877.97;5001159;28;20485;-48
2023/11/20 08:59:20;;;;;;;0.30;0.20;;;;;;;13.27;92.00;99879.81;5005633;28;21060;-49
2023/11/20 09:01:47;;;;;;;0.30;0.20;;;;;;;13.24;91.76;99879.97;5006699;28;20840;-48
2023/11/20 09:04:14;;;;;;;0.30;0.20;;;;;;;13.34;91.17;99873.28;5003004;28;20448;-48
2023/11/20 09:06:41;;;;;;;0.30;0.20;;;;;;;13.16;91.53;99875.91;5000254;28;20481;-47
2023/11/20 09:09:08;;;;;;;0.30;0.20;;;;;;;13.03;91.68;99881.81;5008755;28;20449;-49
2023/11/20 09:11:34;;;;;;;0.30;0.20;;;;;;;13.29;91.75;99885.09;5011752;28;20487;-48
2023/11/20 09:14:01;;;;;;;0.30;0.20;;;;;;;13.24;92.06;99895.13;5002975;28;20427;-48
2023/11/20 09:16:28;;;;;;;0.30;0.20;;;;;;;13.35;91.74;99879.47;5000431;28;20457;-48
2023/11/20 09:18:55;;;;;;;0.30;0.20;;;;;;;13.26;91.71;99879.91;5013551;28;20497;-48
2023/11/20 09:21:21;;;;;;;0.30;0.20;;;;;;;13.24;91.96;99887.13;5000864;28;20767;-47
2023/11/20 09:23:49;;;;;;;0.30;0.20;;;;;;;13.36;91.84;99889.22;5004069;28;20474;-48
2023/11/20 09:26:16;;;;;;;0.30;0.20;;;;;;;13.12;92.68;99884.97;5006644;28;20420;-48
2023/11/20 09:28:43;;;;;;;0.30;0.20;;;;;;;13.34;92.27;99877.75;5003820;28;20532;-47
2023/11/20 09:31:19;;;;;;;0.30;0.20;;;;;;;13.41;92.41;99891.66;4996849;28;20450;-47
2023/11/20 09:33:48;;;;;;;0.30;0.20;;;;;;;13.36;91.97;99896.38;5005494;28;20507;-48
2023/11/20 09:36:15;;;;;;;0.30;0.20;;;;;;;13.23;92.48;99886.25;4999937;28;20426;-48
2023/11/20 09:38:42;;;;;;;0.30;0.20;;;;;;;13.24;91.62;99887.97;5000993;28;20994;-48
2023/11/20 09:41:10;;;;;;;0.30;0.20;;;;;;;13.18;91.62;99884.72;5007208;28;20454;-47
2023/11/20 09:43:37;;;;;;;0.30;0.20;;;;;;;13.42;91.76;99880.91;5006431;28;20427;-47
2023/11/20 09:46:07;;;;;;;0.30;0.20;;;;;;;13.38;91.06;99887.34;5013214;28;20451;-47
2023/11/20 09:48:36;;;;;;;0.30;0.20;;;;;;;13.17;91.88;99880.31;5018277;28;20524;-49
2023/11/20 09:51:05;;;;;;;0.30;0.20;;;;;;;13.27;91.65;99877.16;5000375;28;20481;-47
2023/11/20 09:53:40;;;;;;;0.30;0.20;;;;;;;13.54;91.07;99874.13;5000008;28;20448;-47
2023/11/20 09:56:09;;;;;;;0.30;0.20;;;;;;;13.50;91.22;99872.56;5004523;28;20811;-48
2023/11/20 09:58:38;;;;;;;0.30;0.20;;;;;;;13.65;90.60;99877.16;5006114;28;20514;-47
2023/11/20 10:01:10;;;;;;;0.30;0.20;;;;;;;13.48;91.15;99866.44;5002497;28;20434;-47
2023/11/20 10:03:39;;;;;;;0.30;0.20;;;;;;;13.53;90.89;99861.72;4999873;28;20451;-47
2023/11/20 10:06:13;;;;;;;0.30;0.20;;;;;;;13.45;90.37;99861.25;5002186;28;20473;-48
2023/11/20 10:08:43;;;;;;;0.30;0.20;;;;;;;13.57;90.41;99856.19;5006086;28;20516;-49
2023/11/20 10:11:15;;;;;;;0.30;0.20;;;;;;;13.52;90.85;99865.34;5005515;28;20539;-47
2023/11/20 10:13:41;;;;;;;0.30;0.20;;;;;;;13.54;90.21;99864.31;5011547;28;20996;-47
2023/11/20 10:16:22;;;;;;;0.30;0.20;;;;;;;13.37;90.00;99853.56;4999759;28;20547;-48
2023/11/20 10:18:51;;;;;;;0.30;0.20;;;;;;;13.52;90.18;99843.97;5003641;28;20500;-48
2023/11/20 10:21:19;;;;;;;0.30;0.20;;;;;;;13.52;90.64;99852.84;5006324;28;20443;-48
2023/11/20 10:23:50;;;;;;;0.30;0.20;;;;;;;13.42;91.73;99838.19;5002190;28;20543;-48
2023/11/20 10:26:16;;;;;;;0.30;0.20;;;;;;;13.57;91.95;99847.31;4999247;28;20527;-47
2023/11/20 10:28:45;;;;;;;0.30;0.20;;;;;;;13.37;93.45;99842.91;5002230;28;20863;-47
2023/11/20 10:31:11;;;;;;;0.30;0.20;;;;;;;13.43;93.59;99833.72;5009786;28;20452;-48
2023/11/20 10:33:38;;;;;;;0.30;0.20;;;;;;;13.37;93.09;99828.69;5001929;28;20454;-48
2023/11/20 10:36:15;;;;;;;0.30;0.20;;;;;;;13.38;93.36;99825.94;4996651;28;20522;-47
2023/11/20 10:38:43;;;;;;;0.30;0.20;;;;;;;13.66;92.73;99820.13;5000176;28;20499;-48
2023/11/20 10:41:10;;;;;;;0.30;0.20;;;;;;;13.59;92.84;99829.41;5006662;28;20497;-47
2023/11/20 10:43:38;;;;;;;0.30;0.20;;;;;;;13.52;92.15;99822.59;5005383;28;20813;-47
2023/11/20 10:46:05;;;;;;;0.30;0.20;;;;;;;13.81;90.95;99818.50;5024208;28;20454;-47
2023/11/20 10:48:33;;;;;;;0.30;0.20;;;;;;;13.97;90.04;99816.81;5019020;28;20496;-47
2023/11/20 10:51:06;;;;;;;0.30;0.20;;;;;;;13.82;90.68;99818.44;4999029;28;20427;-48
2023/11/20 10:53:37;;;;;;;0.30;0.20;;;;;;;13.98;89.72;99812.31;4998593;28;20485;-48
2023/11/20 10:56:06;;;;;;;0.30;0.20;;;;;;;14.06;89.63;99807.47;5004187;28;20449;-47
2023/11/20 10:58:33;;;;;;;0.30;0.20;;;;;;;13.92;88.93;99801.00;5005435;28;20496;-48
2023/11/20 11:01:01;;;;;;;0.30;0.20;;;;;;;13.93;87.17;99802.75;5000479;28;20471;-47
2023/11/20 11:03:30;;;;;;;0.30;0.20;;;;;;;14.12;86.88;99801.84;4998698;28;20440;-47
2023/11/20 11:06:03;;;;;;;0.30;0.20;;;;;;;13.92;87.52;99797.47;5002873;28;20448;-47
2023/11/20 11:08:32;;;;;;;0.30;0.20;;;;;;;13.91;87.50;99793.06;5005228;28;20505;-47
2023/11/20 11:11:03;;;;;;;0.30;0.20;;;;;;;13.80;88.50;99798.09;5010745;28;20453;-47
2023/11/20 11:13:33;;;;;;;0.30;0.20;;;;;;;13.77;89.90;99791.09;4998580;28;20973;-47
2023/11/20 11:16:00;;;;;;;0.30;0.20;;;;;;;13.59;90.11;99789.34;5000050;28;20825;-47
2023/11/20 11:18:30;;;;;;;0.30;0.20;;;;;;;13.59;90.94;99786.66;5004883;28;20506;-48
2023/11/20 11:21:00;;;;;;;0.30;0.20;;;;;;;13.55;91.77;99782.41;5004933;28;20452;-48
2023/11/20 11:23:47;;;;;;;0.30;0.20;;;;;;;13.53;93.15;99781.63;5006021;28;20477;-48
2023/11/20 11:26:41;;;;;;;0.30;0.20;;;;;;;13.90;92.29;99773.50;5008975;28;20476;-48
2023/11/20 11:29:14;;;;;;;0.30;0.20;;;;;;;13.79;90.41;99769.66;5009480;28;20449;-49
2023/11/20 11:32:14;;;;;;;0.30;0.20;;;;;;;14.05;88.48;99757.63;5008805;28;20485;-49
2023/11/20 11:34:53;;;;;;;0.30;0.20;;;;;;;14.01;88.70;99764.09;4992822;28;20431;-48
2023/11/20 11:37:46;;;;;;;0.30;0.20;;;;;;;14.05;88.30;99761.19;5009195;28;20526;-47